Time;durP1;ratioP1;P1;durP2;ratioP2;P2;SDS_P1;SDS_P2;PMS_P1;PMS_P2;Temp;Humidity;BMP_temperature;BMP_pressure;BME280_temperature;BME280_humidity;BME280_pressure;Samples;Min_cycle;Max_cycle;Signal;HPM_P1;HPM_P2
2022/03/26 00:01:08;;;;;;;12.40;6.35;;;;;;;5.86;36.34;93366.75;5002310;28;20032;-89
2022/03/26 00:04:02;;;;;;;;;;;;;;;;;;;;;
2022/03/26 00:06:36;;;;;;;18.63;7.03;;;;;;;5.94;36.16;93389.72;5015264;28;20559;-89
2022/03/26 00:09:14;;;;;;;13.02;6.60;;;;;;;5.67;36.62;93350.56;4998511;28;20069;-88
2022/03/26 00:12:18;;;;;;;;;;;;;;;;;;;;;
2022/03/26 00:14:57;;;;;;;13.18;6.40;;;;;;;5.64;36.52;93357.81;5026971;28;20049;-89
2022/03/26 00:17:48;;;;;;;12.73;7.05;;;;;;;5.69;36.30;93375.28;5033671;28;20040;-90
2022/03/26 00:20:19;;;;;;;14.45;6.88;;;;;;;5.51;36.29;93350.31;5015677;28;20053;-89
2022/03/26 00:23:27;;;;;;;16.70;7.32;;;;;;;5.85;36.30;93404.91;5032342;28;20034;-89
2022/03/26 00:29:06;;;;;;;12.25;6.93;;;;;;;5.62;36.95;93385.81;4954328;28;20512;-90
2022/03/26 00:32:18;;;;;;;;;;;;;;;;;;;;;
2022/03/26 00:35:15;;;;;;;14.02;6.97;;;;;;;5.37;37.70;93354.22;5016681;28;20050;-89
2022/03/26 00:37:53;;;;;;;;;;;;;;;;;;;;;
2022/03/26 00:40:58;;;;;;;;;;;;;;;;;;;;;
2022/03/26 00:44:04;;;;;;;15.63;6.50;;;;;;;5.74;37.08;93397.97;5028353;28;20053;-92
2022/03/26 00:46:47;;;;;;;;;;;;;;;;;;;;;
2022/03/26 00:52:19;;;;;;;19.35;8.07;;;;;;;5.49;36.45;93352.34;4987888;28;20046;-88
2022/03/26 00:55:08;;;;;;;16.75;7.53;;;;;;;5.95;36.62;93425.94;5029048;28;20602;-90
2022/03/26 00:58:00;;;;;;;16.13;7.97;;;;;;;5.56;37.00;93363.41;5010985;28;20041;-89
2022/03/26 01:00:42;;;;;;;13.90;7.88;;;;;;;5.66;37.23;93380.97;4999639;28;20044;-89
2022/03/26 01:03:37;;;;;;;16.20;7.93;;;;;;;5.82;37.40;93400.97;5026791;28;20387;-90
2022/03/26 01:06:25;;;;;;;18.75;7.88;;;;;;;5.63;37.25;93371.84;5016296;28;20044;-89
2022/03/26 01:09:24;;;;;;;14.90;8.10;;;;;;;5.81;37.11;93389.03;5016003;28;20497;-88
2022/03/26 01:12:23;;;;;;;15.60;8.55;;;;;;;6.03;37.33;93411.75;5017533;28;20037;-89
2022/03/26 01:18:03;;;;;;;16.67;8.30;;;;;;;5.94;37.49;93387.94;4985876;28;20052;-89
2022/03/26 01:20:50;;;;;;;15.38;7.68;;;;;;;5.80;37.18;93355.47;5017443;28;20042;-89
2022/03/26 01:23:20;;;;;;;14.07;7.72;;;;;;;5.99;37.54;93380.25;5000386;28;20041;-89
2022/03/26 01:26:06;;;;;;;;;;;;;;;;;;;;;
2022/03/26 01:29:02;;;;;;;17.10;7.70;;;;;;;5.72;38.22;93351.47;5033923;28;20099;-90
2022/03/26 01:31:51;;;;;;;;;;;;;;;;;;;;;
2022/03/26 01:34:29;;;;;;;15.63;7.78;;;;;;;5.64;38.29;93363.00;5006737;28;20034;-88
2022/03/26 01:37:19;;;;;;;;;;;;;;;;;;;;;
2022/03/26 01:40:04;;;;;;;14.80;7.80;;;;;;;5.63;38.77;93378.84;5025023;28;20037;-89
2022/03/26 01:42:36;;;;;;;15.07;7.78;;;;;;;5.46;38.49;93345.03;5010425;28;20042;-89
2022/03/26 01:45:35;;;;;;;15.60;7.80;;;;;;;5.63;38.52;93379.63;5018637;28;20037;-88
2022/03/26 01:48:28;;;;;;;16.83;7.53;;;;;;;5.35;39.25;93343.28;4981220;28;20407;-89
2022/03/26 01:51:17;;;;;;;15.63;8.07;;;;;;;5.48;39.42;93362.97;5026535;28;20037;-89
2022/03/26 01:54:25;;;;;;;13.52;7.03;;;;;;;5.35;38.94;93349.25;5028239;28;20041;-92
2022/03/26 01:57:37;;;;;;;16.23;7.88;;;;;;;5.38;39.17;93355.78;5015733;28;20049;-89
2022/03/26 02:00:12;;;;;;;17.05;7.28;;;;;;;5.38;38.79;93354.00;4999958;28;20038;-89
2022/03/26 02:02:57;;;;;;;;;;;;;;;;;;;;;
2022/03/26 02:05:29;;;;;;;19.65;8.48;;;;;;;5.22;39.00;93337.34;5009356;28;20045;-89
2022/03/26 02:08:03;;;;;;;16.85;8.18;;;;;;;5.25;38.97;93337.91;5016392;28;20128;-88
2022/03/26 02:11:02;;;;;;;15.23;7.90;;;;;;;5.29;39.48;93350.19;5015222;28;20124;-89
2022/03/26 02:14:08;;;;;;;;;;;;;;;;;;;;;
2022/03/26 02:17:10;;;;;;;16.00;8.43;;;;;;;5.22;38.64;93336.53;5017249;28;20038;-88
2022/03/26 02:20:06;;;;;;;;;;;;;;;;;;;;;
2022/03/26 02:22:45;;;;;;;16.52;8.18;;;;;;;5.24;38.74;93336.31;5019923;28;20128;-89
2022/03/26 02:25:28;;;;;;;16.50;8.75;;;;;;;5.31;38.65;93339.56;5002089;28;20042;-88
2022/03/26 02:28:41;;;;;;;15.60;8.32;;;;;;;5.36;38.90;93350.06;5022104;28;20390;-89
2022/03/26 02:31:27;;;;;;;18.48;8.45;;;;;;;5.24;39.19;93328.53;5019366;28;20099;-92
2022/03/26 02:34:11;;;;;;;16.80;8.07;;;;;;;5.26;39.13;93342.06;5000942;28;20100;-89
2022/03/26 02:36:53;;;;;;;18.08;8.15;;;;;;;5.31;39.21;93349.94;4999686;28;20042;-89
2022/03/26 02:39:28;;;;;;;17.15;8.38;;;;;;;5.42;38.98;93370.66;5006566;28;20092;-89
2022/03/26 02:42:14;;;;;;;15.02;8.10;;;;;;;5.13;38.87;93325.75;5012684;28;20042;-89
2022/03/26 02:44:51;;;;;;;16.67;7.45;;;;;;;5.14;38.94;93335.13;5002839;28;20041;-89
2022/03/26 02:47:40;;;;;;;18.85;9.05;;;;;;;5.37;38.96;93372.41;5000469;28;20037;-89
2022/03/26 02:50:29;;;;;;;19.05;7.88;;;;;;;5.32;39.08;93370.50;5022451;28;20077;-89
2022/03/26 02:53:44;;;;;;;17.35;8.32;;;;;;;5.09;39.18;93340.22;5003970;28;20467;-89
2022/03/26 02:56:25;;;;;;;16.15;7.90;;;;;;;5.25;39.81;93379.44;5006234;28;20050;-89
2022/03/26 02:58:57;;;;;;;18.67;9.00;;;;;;;5.05;39.63;93348.69;5019014;28;20115;-90
2022/03/26 03:01:26;;;;;;;18.33;8.43;;;;;;;4.91;39.45;93333.41;5018012;28;20053;-89
2022/03/26 03:04:23;;;;;;;16.80;8.25;;;;;;;5.08;39.80;93364.59;5002838;28;20038;-90
2022/03/26 03:07:20;;;;;;;16.48;7.65;;;;;;;4.97;39.79;93347.25;5018307;28;20030;-89
2022/03/26 03:10:19;;;;;;;;;;;;;;;;;;;;;
2022/03/26 03:13:08;;;;;;;19.58;8.52;;;;;;;4.98;39.77;93367.00;5023524;28;20038;-89
2022/03/26 03:16:01;;;;;;;15.52;7.95;;;;;;;4.78;40.09;93342.22;5020278;28;20060;-89
2022/03/26 03:18:43;;;;;;;17.08;8.18;;;;;;;4.85;40.22;93351.69;5017424;28;20037;-91
2022/03/26 03:21:37;;;;;;;14.57;7.82;;;;;;;4.78;40.42;93352.59;5000014;28;20073;-89
2022/03/26 03:24:36;;;;;;;20.58;8.15;;;;;;;5.00;39.88;93393.50;5019272;28;20045;-89
2022/03/26 03:27:18;;;;;;;;;;;;;;;;;;;;;
2022/03/26 03:29:57;;;;;;;16.33;7.43;;;;;;;4.89;39.26;93376.16;5035799;28;20041;-89
2022/03/26 03:32:33;;;;;;;14.48;7.80;;;;;;;4.98;39.29;93387.75;5013590;28;20038;-89
2022/03/26 03:35:15;;;;;;;15.73;8.05;;;;;;;4.76;39.02;93351.25;5018656;28;20467;-88
2022/03/26 03:38:01;;;;;;;16.30;7.85;;;;;;;4.82;39.34;93360.72;5017834;28;20041;-88
2022/03/26 03:40:46;;;;;;;16.30;8.00;;;;;;;4.83;39.63;93351.13;5014600;28;20041;-89
2022/03/26 03:46:16;;;;;;;16.58;8.30;;;;;;;5.22;39.65;93419.63;5018059;28;20536;-89
2022/03/26 03:52:04;;;;;;;;;;;;;;;;;;;;;
2022/03/26 03:54:47;;;;;;;;;;;;;;;;;;;;;
2022/03/26 03:57:24;;;;;;;18.65;7.47;;;;;;;4.77;40.23;93358.81;5005638;28;20041;-89
2022/03/26 04:00:08;;;;;;;17.88;8.20;;;;;;;5.04;40.17;93404.19;5032571;28;20026;-89
2022/03/26 04:02:46;;;;;;;18.52;8.40;;;;;;;4.72;40.38;93370.88;5033273;28;20494;-90
2022/03/26 04:05:27;;;;;;;;;;;;;;;;;;;;;
2022/03/26 04:07:53;;;;;;;14.68;7.72;;;;;;;4.62;40.61;93363.69;5014481;28;20043;-89
2022/03/26 04:10:28;;;;;;;15.48;8.35;;;;;;;4.71;40.26;93377.09;5034847;28;20064;-89
2022/03/26 04:13:13;;;;;;;17.90;8.77;;;;;;;4.63;40.17;93375.63;5016559;28;20103;-89
2022/03/26 04:16:29;;;;;;;18.52;8.13;;;;;;;4.84;40.37;93414.94;4983128;28;20049;-90
2022/03/26 04:19:07;;;;;;;16.23;8.02;;;;;;;4.70;40.28;93397.03;4989239;28;20053;-89
2022/03/26 04:21:54;;;;;;;;;;;;;;;;;;;;;
2022/03/26 04:24:35;;;;;;;16.23;8.00;;;;;;;4.54;40.99;93371.78;4994516;28;20038;-89
2022/03/26 04:27:16;;;;;;;16.40;8.45;;;;;;;4.43;40.61;93363.00;4998993;28;20056;-92
2022/03/26 04:30:05;;;;;;;16.73;8.07;;;;;;;4.44;40.87;93369.00;4980878;28;20525;-89
2022/03/26 04:32:35;;;;;;;17.58;8.63;;;;;;;4.40;41.07;93367.88;4996435;28;20038;-89
2022/03/26 04:35:15;;;;;;;16.80;8.10;;;;;;;4.34;41.14;93365.13;4999221;28;20034;-89
2022/03/26 04:38:13;;;;;;;15.88;7.57;;;;;;;4.59;40.95;93409.00;5012675;28;20040;-90
2022/03/26 04:41:02;;;;;;;;;;;;;;;;;;;;;
2022/03/26 04:43:51;;;;;;;18.63;8.32;;;;;;;4.39;41.01;93382.63;5013732;28;20026;-89
2022/03/26 04:46:45;;;;;;;15.32;7.47;;;;;;;4.71;41.07;93432.34;5007923;28;20037;-89
2022/03/26 04:49:26;;;;;;;;;;;;;;;;;;;;;
2022/03/26 04:52:05;;;;;;;16.80;7.90;;;;;;;4.72;40.96;93444.28;5014997;28;20069;-88
2022/03/26 04:55:24;;;;;;;18.65;7.75;;;;;;;4.27;40.83;93376.66;5001475;28;20107;-89
2022/03/26 04:58:06;;;;;;;20.98;8.52;;;;;;;4.57;40.54;93423.19;5002439;28;20073;-88
2022/03/26 05:03:30;;;;;;;18.88;7.75;;;;;;;4.74;40.33;93452.63;5014119;28;20038;-89
2022/03/26 05:06:05;;;;;;;19.05;7.97;;;;;;;4.35;40.49;93397.06;4998083;28;20030;-89
2022/03/26 05:08:50;;;;;;;;;;;;;;;;;;;;;
2022/03/26 05:11:32;;;;;;;17.55;7.70;;;;;;;4.48;40.66;93422.75;5012981;28;20037;-90
2022/03/26 05:14:30;;;;;;;15.88;7.68;;;;;;;4.73;40.75;93458.84;5010867;28;20495;-89
2022/03/26 05:17:14;;;;;;;11.70;6.97;;;;;;;4.28;40.60;93391.97;5021016;28;20471;-89
2022/03/26 05:20:18;;;;;;;18.38;8.20;;;;;;;4.31;40.66;93401.88;5016271;28;20495;-90
2022/03/26 05:23:04;;;;;;;13.95;7.20;;;;;;;4.24;40.25;93396.03;5016472;28;20128;-90
2022/03/26 05:26:04;;;;;;;16.85;7.75;;;;;;;4.40;40.49;93412.72;5017261;28;20502;-89
2022/03/26 05:29:04;;;;;;;13.90;7.50;;;;;;;4.36;40.08;93409.00;5029312;28;20049;-89
2022/03/26 05:31:32;;;;;;;16.00;7.70;;;;;;;4.41;40.12;93405.72;4999934;28;20045;-88
2022/03/26 05:34:24;;;;;;;13.70;7.55;;;;;;;4.76;40.18;93452.41;5016056;28;20034;-89
2022/03/26 05:37:18;;;;;;;15.98;8.43;;;;;;;4.95;40.50;93469.44;5016171;28;20042;-89
2022/03/26 05:40:01;;;;;;;21.63;8.43;;;;;;;4.69;40.25;93416.22;5015927;28;20061;-90
2022/03/26 05:42:55;;;;;;;15.43;7.55;;;;;;;4.93;40.12;93442.13;5044225;28;20030;-89
2022/03/26 05:45:39;;;;;;;;;;;;;;;;;;;;;
2022/03/26 05:48:30;;;;;;;16.25;7.95;;;;;;;5.27;40.14;93457.88;5038645;28;20380;-88
2022/03/26 05:51:09;;;;;;;18.73;8.05;;;;;;;5.50;39.70;93485.59;5006870;28;20041;-89
2022/03/26 05:53:54;;;;;;;19.08;8.25;;;;;;;5.38;39.33;93436.28;5008443;28;20041;-88
2022/03/26 05:56:37;;;;;;;;;;;;;;;6.13;38.65;93497.72;5039835;28;20033;-89
2022/03/26 05:59:23;;;;;;;18.75;7.80;;;;;;;7.55;36.11;93444.56;5037879;28;19912;-89
2022/03/26 06:02:05;;;;;;;17.48;9.05;;;;;;;9.41;32.94;93440.53;5000337;28;20129;-88
2022/03/26 06:05:09;;;;;;;22.27;8.73;;;;;;;11.15;30.02;93482.69;4999723;28;20108;-89
2022/03/26 06:07:40;;;;;;;15.45;8.20;;;;;;;12.32;27.62;93457.84;5000186;28;20372;-89
2022/03/26 06:10:38;;;;;;;20.00;8.68;;;;;;;13.23;27.34;93445.00;5016732;28;20034;-89
2022/03/26 06:13:04;;;;;;;16.45;8.82;;;;;;;14.24;26.73;93448.56;4997213;28;20422;-85
2022/03/26 06:15:29;;;;;;;19.10;8.45;;;;;;;15.13;25.35;93477.53;4966187;28;20109;-86
2022/03/26 06:17:55;;;;;;;15.07;8.60;;;;;;;16.03;24.85;93478.00;5002259;28;20495;-85
2022/03/26 06:20:21;;;;;;;17.48;8.82;;;;;;;16.70;23.64;93460.69;5013323;28;20070;-86
2022/03/26 06:22:49;;;;;;;16.77;8.70;;;;;;;17.55;22.18;93470.56;4979868;28;20093;-86
2022/03/26 06:25:16;;;;;;;18.00;8.75;;;;;;;18.42;20.97;93492.81;5006464;28;20076;-86
2022/03/26 06:27:53;;;;;;;18.63;10.00;;;;;;;18.97;21.43;93475.53;5006075;28;20084;-86
2022/03/26 06:30:21;;;;;;;14.55;8.68;;;;;;;19.59;20.34;93453.06;4995429;28;20084;-86
2022/03/26 06:32:46;;;;;;;19.38;9.48;;;;;;;20.53;19.07;93497.28;4996802;28;20038;-86
2022/03/26 06:35:12;;;;;;;18.02;9.15;;;;;;;21.00;18.88;93486.47;4963205;28;20496;-86
2022/03/26 06:37:38;;;;;;;18.77;9.77;;;;;;;21.57;18.43;93490.31;5005967;28;20050;-86
2022/03/26 06:40:07;;;;;;;17.25;9.45;;;;;;;22.03;17.55;93499.81;4997804;28;20029;-85
2022/03/26 06:42:33;;;;;;;20.75;9.45;;;;;;;22.52;16.68;93493.72;4998621;28;20042;-86
2022/03/26 06:45:01;;;;;;;14.90;8.00;;;;;;;21.57;16.66;93503.63;4978433;28;20369;-87
2022/03/26 06:47:27;;;;;;;16.75;8.65;;;;;;;21.44;16.66;93494.84;4979312;28;20057;-87
2022/03/26 06:49:54;;;;;;;16.35;8.40;;;;;;;22.49;15.92;93505.03;4979119;28;20035;-88
2022/03/26 06:52:23;;;;;;;13.80;8.38;;;;;;;23.77;15.75;93500.94;4999158;28;20482;-86
2022/03/26 06:54:48;;;;;;;15.60;8.77;;;;;;;24.37;15.12;93514.22;5014774;28;20034;-88
2022/03/26 06:57:14;;;;;;;16.15;8.75;;;;;;;24.78;15.14;93498.69;5009396;28;20111;-86
2022/03/26 06:59:39;;;;;;;16.42;8.30;;;;;;;25.33;15.16;93518.16;4996247;28;20041;-86
2022/03/26 07:02:05;;;;;;;15.25;8.45;;;;;;;25.62;14.28;93519.47;5025907;28;20495;-86
2022/03/26 07:04:31;;;;;;;16.35;8.90;;;;;;;26.01;13.42;93514.06;5034573;28;20067;-88
2022/03/26 07:06:57;;;;;;;14.85;9.40;;;;;;;26.85;14.35;93514.16;5008604;28;20057;-87
2022/03/26 07:09:23;;;;;;;15.48;8.95;;;;;;;27.15;12.64;93525.66;5014618;28;20045;-87
2022/03/26 07:11:50;;;;;;;15.25;8.68;;;;;;;27.46;12.38;93518.38;5014397;28;20042;-88
2022/03/26 07:14:17;;;;;;;14.35;8.88;;;;;;;27.28;12.87;93522.78;4980684;28;20475;-89
2022/03/26 07:16:44;;;;;;;16.65;8.65;;;;;;;26.25;13.99;93518.25;4993706;28;20519;-86
2022/03/26 07:19:10;;;;;;;13.48;8.85;;;;;;;25.49;13.72;93516.19;4995212;28;20058;-86
2022/03/26 07:21:36;;;;;;;16.00;8.30;;;;;;;24.57;15.01;93513.16;4989236;28;20479;-86
2022/03/26 07:24:02;;;;;;;13.73;7.95;;;;;;;24.13;15.89;93505.25;4995813;28;20041;-87
2022/03/26 07:26:28;;;;;;;15.20;8.25;;;;;;;22.48;16.81;93513.38;4996824;28;20446;-86
2022/03/26 07:28:55;;;;;;;15.38;8.52;;;;;;;20.97;18.14;93509.19;4996713;28;20033;-85
2022/03/26 07:31:21;;;;;;;14.75;8.55;;;;;;;19.49;20.09;93517.13;4981535;28;20396;-86
2022/03/26 07:33:47;;;;;;;14.15;8.35;;;;;;;18.75;20.08;93526.06;5001138;28;20072;-86
2022/03/26 07:36:12;;;;;;;16.58;8.70;;;;;;;18.41;21.15;93528.34;4997361;28;20038;-87
2022/03/26 07:38:38;;;;;;;15.25;8.05;;;;;;;17.18;23.06;93536.03;4997870;28;20121;-88
2022/03/26 07:41:04;;;;;;;14.50;8.18;;;;;;;15.50;24.86;93519.91;4995675;28;20041;-86
2022/03/26 07:43:29;;;;;;;16.33;8.27;;;;;;;15.62;24.99;93534.19;4993606;28;20059;-90
2022/03/26 07:45:55;;;;;;;16.77;8.68;;;;;;;15.98;24.72;93541.47;5006566;28;20057;-87
2022/03/26 07:48:20;;;;;;;15.35;8.55;;;;;;;16.35;24.63;93547.63;4981241;28;20033;-87
2022/03/26 07:50:46;;;;;;;15.40;8.40;;;;;;;15.91;24.45;93550.88;5014376;28;20038;-88
2022/03/26 07:53:12;;;;;;;17.20;9.13;;;;;;;16.16;24.67;93536.38;4997579;28;20026;-87
2022/03/26 07:55:38;;;;;;;16.30;8.27;;;;;;;15.99;24.40;93545.69;4998247;28;20131;-87
2022/03/26 07:58:03;;;;;;;19.20;8.90;;;;;;;15.40;25.80;93541.97;5006851;28;20511;-87
2022/03/26 08:00:29;;;;;;;13.40;8.45;;;;;;;15.04;27.14;93547.03;4980562;28;20507;-86
2022/03/26 08:02:55;;;;;;;16.30;8.80;;;;;;;15.29;26.06;93532.66;5021943;28;20100;-86
2022/03/26 08:05:21;;;;;;;12.85;8.35;;;;;;;15.45;26.41;93551.66;5007913;28;20480;-85
2022/03/26 08:07:48;;;;;;;16.70;8.77;;;;;;;15.88;26.79;93536.41;4999160;28;20045;-87
2022/03/26 08:10:14;;;;;;;18.10;7.80;;;;;;;14.33;26.71;93524.03;5025784;28;20049;-88
2022/03/26 08:12:40;;;;;;;14.57;8.25;;;;;;;14.56;27.10;93522.41;4993887;28;20396;-87
2022/03/26 08:15:06;;;;;;;17.48;8.20;;;;;;;14.79;27.12;93527.91;4994827;28;20418;-87
2022/03/26 08:17:31;;;;;;;18.50;7.63;;;;;;;14.73;27.17;93558.81;4996472;28;20118;-86
2022/03/26 08:19:57;;;;;;;17.90;8.57;;;;;;;14.35;27.53;93548.22;4996684;28;20086;-86
2022/03/26 08:22:23;;;;;;;16.65;8.30;;;;;;;14.87;26.22;93552.84;5030014;28;20041;-87
2022/03/26 08:24:48;;;;;;;17.83;8.40;;;;;;;14.99;26.37;93553.97;5015031;28;20383;-88
2022/03/26 08:27:14;;;;;;;16.88;8.50;;;;;;;14.09;28.02;93549.59;4993465;28;20038;-87
2022/03/26 08:29:39;;;;;;;15.15;8.48;;;;;;;14.53;27.92;93557.22;5029272;28;20042;-89
2022/03/26 08:32:07;;;;;;;19.85;8.43;;;;;;;14.93;27.77;93564.88;5028874;28;20520;-86
2022/03/26 08:34:33;;;;;;;20.63;9.00;;;;;;;14.67;26.98;93548.63;5014287;28;20133;-86
2022/03/26 08:36:58;;;;;;;15.70;8.63;;;;;;;14.67;27.50;93564.44;5028785;28;20050;-87
2022/03/26 08:39:24;;;;;;;23.58;9.63;;;;;;;14.80;29.98;93557.69;5016701;28;20037;-87
2022/03/26 08:41:50;;;;;;;19.73;10.20;;;;;;;15.18;23.58;93546.03;5011254;28;20041;-86
2022/03/26 08:44:16;;;;;;;16.67;9.13;;;;;;;15.61;25.03;93556.38;5014887;28;20028;-87
2022/03/26 08:46:41;;;;;;;21.98;9.13;;;;;;;14.60;28.60;93562.16;5011134;28;20132;-87
2022/03/26 08:49:07;;;;;;;17.15;8.32;;;;;;;14.59;28.34;93536.91;5011360;28;20104;-87
2022/03/26 08:51:33;;;;;;;17.08;8.85;;;;;;;14.64;28.83;93560.53;5012482;28;20088;-87
2022/03/26 08:53:59;;;;;;;18.50;8.88;;;;;;;14.71;28.27;93545.16;5011289;28;20041;-87
2022/03/26 08:56:24;;;;;;;22.60;9.70;;;;;;;14.98;28.50;93562.16;5027762;28;20042;-86
2022/03/26 08:58:51;;;;;;;23.85;8.93;;;;;;;15.60;26.08;93564.59;5012696;28;20046;-86
2022/03/26 09:01:17;;;;;;;16.13;9.80;;;;;;;15.44;25.74;93553.50;5014019;28;20044;-88
2022/03/26 09:03:43;;;;;;;15.32;8.68;;;;;;;15.11;27.62;93566.72;5025721;28;20041;-87
2022/03/26 09:06:10;;;;;;;17.23;8.55;;;;;;;15.09;28.21;93568.84;5015032;28;20495;-87
2022/03/26 09:08:36;;;;;;;17.10;9.02;;;;;;;15.47;26.75;93574.06;5027229;28;20034;-90
2022/03/26 09:11:04;;;;;;;16.45;9.30;;;;;;;15.23;27.82;93560.19;5011630;28;20038;-87
2022/03/26 09:13:30;;;;;;;16.42;9.00;;;;;;;15.56;25.74;93564.41;5010557;28;20093;-86
2022/03/26 09:15:56;;;;;;;19.38;8.95;;;;;;;14.95;26.40;93562.72;4990517;28;20046;-86
2022/03/26 09:18:22;;;;;;;20.48;10.23;;;;;;;14.78;25.82;93563.25;5021413;28;20037;-87
2022/03/26 09:20:48;;;;;;;21.02;9.23;;;;;;;15.23;26.34;93550.44;5027262;28;20459;-85
2022/03/26 09:23:14;;;;;;;23.25;12.93;;;;;;;15.01;22.66;93564.22;5013375;28;20037;-88
2022/03/26 09:25:42;;;;;;;16.92;10.25;;;;;;;15.25;26.34;93572.03;5012600;28;20044;-87
2022/03/26 09:28:07;;;;;;;25.52;12.07;;;;;;;15.97;22.32;93563.69;5026897;28;20042;-88
2022/03/26 09:30:33;;;;;;;22.20;11.60;;;;;;;15.92;23.45;93571.72;4997126;28;20045;-86
2022/03/26 09:32:59;;;;;;;25.67;12.50;;;;;;;16.20;22.00;93556.63;5022206;28;20044;-89
2022/03/26 09:35:26;;;;;;;18.00;10.88;;;;;;;16.23;22.44;93555.25;5011389;28;20392;-87
2022/03/26 09:37:52;;;;;;;23.27;11.85;;;;;;;16.02;22.12;93533.75;5027767;28;20026;-87
2022/03/26 09:40:20;;;;;;;22.52;12.60;;;;;;;16.08;19.88;93553.72;4998436;28;20513;-87
2022/03/26 09:42:46;;;;;;;24.55;13.07;;;;;;;16.31;19.94;93551.94;5022029;28;20525;-86
2022/03/26 09:45:11;;;;;;;19.42;11.48;;;;;;;15.88;20.02;93573.38;5013558;28;20033;-87
2022/03/26 09:47:37;;;;;;;26.17;13.20;;;;;;;16.32;20.24;93571.97;5031786;28;20430;-87
2022/03/26 09:50:06;;;;;;;23.55;13.32;;;;;;;16.50;19.00;93570.28;5013921;28;20045;-87
2022/03/26 09:52:33;;;;;;;23.65;11.27;;;;;;;16.37;20.15;93571.91;5031182;28;20045;-88
2022/03/26 09:54:59;;;;;;;20.90;11.95;;;;;;;16.78;19.96;93568.41;5003109;28;20037;-88
2022/03/26 09:57:25;;;;;;;22.60;12.27;;;;;;;16.38;19.38;93536.47;5013507;28;20042;-87
2022/03/26 09:59:51;;;;;;;22.77;12.23;;;;;;;16.91;19.62;93568.66;4996576;28;20040;-88
2022/03/26 10:02:16;;;;;;;20.92;12.25;;;;;;;16.07;20.58;93536.28;5019670;28;20087;-87
2022/03/26 10:04:43;;;;;;;18.05;9.80;;;;;;;15.79;21.33;93554.00;4990586;28;20597;-88
2022/03/26 10:07:09;;;;;;;24.80;13.57;;;;;;;15.59;20.59;93563.81;4977608;28;20038;-86
2022/03/26 10:09:41;;;;;;;24.30;12.05;;;;;;;15.79;21.00;93565.34;5011819;28;20494;-86
2022/03/26 10:12:15;;;;;;;21.67;12.00;;;;;;;15.65;22.08;93558.44;4992219;28;20411;-88
2022/03/26 10:14:41;;;;;;;21.38;11.57;;;;;;;15.88;19.32;93578.66;4973875;28;20114;-87
2022/03/26 10:17:12;;;;;;;21.85;12.13;;;;;;;15.52;20.85;93558.13;4990283;28;20169;-88
2022/03/26 10:19:46;;;;;;;20.07;11.80;;;;;;;15.65;19.87;93563.72;4991518;28;20509;-86
2022/03/26 10:22:37;;;;;;;20.85;11.25;;;;;;;15.56;21.05;93568.91;5005519;28;20037;-86
2022/03/26 10:25:07;;;;;;;21.30;10.63;;;;;;;15.81;21.88;93565.81;5010315;28;20041;-86
2022/03/26 10:27:38;;;;;;;20.23;11.10;;;;;;;15.85;20.63;93560.75;5011199;28;20084;-86
2022/03/26 10:30:05;;;;;;;19.50;10.73;;;;;;;15.43;20.54;93546.69;4995828;28;20033;-88
2022/03/26 10:32:50;;;;;;;19.60;9.80;;;;;;;15.58;20.59;93558.81;5013767;28;20061;-88
2022/03/26 10:35:19;;;;;;;17.38;9.82;;;;;;;16.11;20.44;93547.06;4993532;28;20037;-87
2022/03/26 10:37:47;;;;;;;20.63;9.60;;;;;;;15.98;19.52;93573.16;5001717;28;20041;-87
2022/03/26 10:40:17;;;;;;;18.00;10.32;;;;;;;16.37;20.32;93545.47;4992890;28;20045;-86
2022/03/26 10:42:43;;;;;;;13.55;7.85;;;;;;;15.62;19.18;93563.22;5014687;28;20049;-87
2022/03/26 10:45:17;;;;;;;17.85;9.00;;;;;;;15.94;20.32;93555.56;4990846;28;20041;-85
2022/03/26 10:47:43;;;;;;;18.88;9.82;;;;;;;16.00;20.65;93547.25;5033045;28;20053;-86
2022/03/26 10:50:13;;;;;;;17.50;9.70;;;;;;;15.98;19.92;93538.06;4995178;28;20033;-88
2022/03/26 10:52:39;;;;;;;19.85;10.40;;;;;;;15.87;20.66;93536.69;4990363;28;20069;-88
2022/03/26 10:55:13;;;;;;;18.75;10.45;;;;;;;15.88;20.08;93554.09;4977868;28;20065;-87
2022/03/26 10:57:40;;;;;;;19.80;10.35;;;;;;;16.28;21.13;93562.31;4996377;28;20034;-85
2022/03/26 11:00:08;;;;;;;21.70;9.40;;;;;;;15.92;19.70;93540.03;5008902;28;20360;-88
2022/03/26 11:02:34;;;;;;;17.05;10.35;;;;;;;16.72;20.08;93560.88;5011151;28;20132;-88
2022/03/26 11:05:00;;;;;;;19.52;11.30;;;;;;;16.34;19.84;93551.34;4999637;28;20037;-88
2022/03/26 11:07:26;;;;;;;18.95;10.25;;;;;;;16.49;19.36;93520.41;5015822;28;20096;-88
2022/03/26 11:09:55;;;;;;;20.48;11.27;;;;;;;16.49;19.90;93544.19;5032310;28;20032;-89
2022/03/26 11:12:22;;;;;;;18.67;10.73;;;;;;;16.73;19.98;93543.91;5015395;28;20045;-87
2022/03/26 11:14:48;;;;;;;22.77;10.85;;;;;;;16.50;20.09;93551.81;5033598;28;20036;-87
2022/03/26 11:17:14;;;;;;;19.77;9.82;;;;;;;16.28;19.97;93551.72;4987461;28;20056;-87
2022/03/26 11:19:51;;;;;;;26.13;11.27;;;;;;;15.66;20.48;93547.59;5033322;28;20069;-86
2022/03/26 11:22:23;;;;;;;16.23;9.50;;;;;;;16.08;19.65;93532.59;5033798;28;20079;-87
2022/03/26 11:25:07;;;;;;;17.53;10.10;;;;;;;16.43;19.80;93543.50;5015822;28;20037;-87
2022/03/26 11:28:19;;;;;;;20.73;10.45;;;;;;;16.20;19.14;93553.22;5032791;28;20034;-88
2022/03/26 11:30:53;;;;;;;20.00;11.18;;;;;;;16.67;19.54;93553.06;4991436;28;20049;-88
2022/03/26 11:33:21;;;;;;;21.52;9.77;;;;;;;15.49;19.13;93511.22;5034792;28;20033;-89
2022/03/26 11:35:57;;;;;;;20.63;10.25;;;;;;;15.62;19.13;93551.88;5014066;28;20039;-89
2022/03/26 11:38:28;;;;;;;23.48;11.25;;;;;;;16.36;19.17;93525.41;5032680;28;20041;-89
2022/03/26 11:40:56;;;;;;;22.40;11.77;;;;;;;16.78;19.67;93523.44;4998316;28;20125;-88
2022/03/26 11:43:43;;;;;;;22.55;11.00;;;;;;;16.56;19.75;93542.69;5033691;28;20052;-88
2022/03/26 11:52:18;;;;;;;23.70;12.63;;;;;;;16.38;19.93;93531.19;5028068;28;20056;-87
2022/03/26 11:54:45;;;;;;;23.50;12.30;;;;;;;16.76;20.28;93528.25;5032193;28;20479;-87
2022/03/26 11:57:22;;;;;;;21.88;12.48;;;;;;;17.03;19.45;93508.09;5033361;28;20474;-87
2022/03/26 11:59:51;;;;;;;24.10;12.35;;;;;;;16.89;19.85;93533.81;5027203;28;20037;-88
2022/03/26 12:02:16;;;;;;;23.55;12.00;;;;;;;16.16;19.20;93528.47;5023259;28;20049;-87
2022/03/26 12:04:49;;;;;;;23.30;12.90;;;;;;;16.76;20.19;93517.69;5014279;28;20527;-87
2022/03/26 12:07:16;;;;;;;24.85;12.45;;;;;;;16.90;19.97;93501.00;4996218;28;20045;-89
2022/03/26 12:09:42;;;;;;;25.40;12.95;;;;;;;16.62;19.41;93487.88;4980218;28;20046;-89
2022/03/26 12:17:04;;;;;;;;;;;;;;;;;;;;;
2022/03/26 12:24:53;;;;;;;;;;;;;;;;;;;;;
2022/03/26 12:39:22;;;;;;;24.55;12.48;;;;;;;16.46;19.54;93429.28;4920284;28;20463;-87
2022/03/26 12:41:52;;;;;;;24.05;13.27;;;;;;;15.88;19.39;93432.66;4993491;28;20034;-87
2022/03/26 12:44:22;;;;;;;24.55;13.35;;;;;;;15.99;19.56;93428.72;4997743;28;20034;-88
2022/03/26 12:46:56;;;;;;;23.50;12.15;;;;;;;16.95;20.02;93437.41;4983430;28;20037;-88
2022/03/26 12:49:22;;;;;;;26.15;13.77;;;;;;;17.08;18.74;93457.72;4987781;28;20070;-86
2022/03/26 12:52:04;;;;;;;22.50;12.70;;;;;;;16.12;19.34;93420.00;5025618;28;20386;-86
2022/03/26 12:54:32;;;;;;;24.40;13.23;;;;;;;16.37;18.26;93460.94;5001536;28;20065;-86
2022/03/26 12:57:01;;;;;;;20.83;9.75;;;;;;;16.07;19.68;93414.03;5001959;28;20037;-88
2022/03/26 12:59:36;;;;;;;21.23;12.63;;;;;;;16.02;18.63;93428.91;4995959;28;20061;-86
2022/03/26 13:02:20;;;;;;;;;;;;;;;;;;;;;
2022/03/26 13:04:53;;;;;;;26.05;15.10;;;;;;;16.87;19.14;93403.78;5008450;28;20030;-88
2022/03/26 13:07:21;;;;;;;27.75;13.65;;;;;;;16.59;19.04;93425.00;5011278;28;20404;-88
2022/03/26 13:09:53;;;;;;;21.23;10.25;;;;;;;16.41;17.91;93395.03;5006390;28;20061;-88
2022/03/26 13:12:27;;;;;;;;;;;;;;;16.91;18.68;93457.59;5006015;28;20101;-87
2022/03/26 13:14:56;;;;;;;25.15;12.45;;;;;;;16.66;19.02;93443.88;4990993;28;20831;-87
2022/03/26 13:17:27;;;;;;;23.20;12.32;;;;;;;15.91;19.07;93430.19;4987967;28;20114;-87
2022/03/26 13:20:00;;;;;;;24.20;12.52;;;;;;;16.09;19.34;93423.22;5004643;28;20045;-89
2022/03/26 13:22:30;;;;;;;23.80;13.45;;;;;;;16.87;18.91;93388.69;5002518;28;20038;-87
2022/03/26 13:24:55;;;;;;;30.63;14.30;;;;;;;17.09;19.03;93443.41;5004567;28;20029;-90
2022/03/26 13:27:23;;;;;;;28.17;15.82;;;;;;;16.49;18.84;93388.25;5004839;28;20367;-89
2022/03/26 13:29:53;;;;;;;24.08;12.75;;;;;;;16.71;19.02;93406.00;4986653;28;20041;-87